Time;durP1;ratioP1;P1;durP2;ratioP2;P2;SDS_P1;SDS_P2;PMS_P1;PMS_P2;Temp;Humidity;BMP_temperature;BMP_pressure;BME280_temperature;BME280_humidity;BME280_pressure;Samples;Min_cycle;Max_cycle;Signal;HPM_P1;HPM_P2
2021/04/30 00:01:22;;;;;;;8.02;4.90;;;8.30;99.00;;;7.82;70.46;100899.28;4080867;29;20055;-69
2021/04/30 00:03:23;;;;;;;10.80;5.20;;;8.20;99.10;;;7.85;70.36;100908.69;4080575;29;20072;-69
2021/04/30 00:05:26;;;;;;;8.02;5.32;;;8.10;99.20;;;7.79;70.68;100883.81;4080604;29;20518;-69
2021/04/30 00:07:27;;;;;;;7.18;5.55;;;8.10;99.30;;;7.84;70.52;100909.66;4080679;29;20067;-69
2021/04/30 00:09:28;;;;;;;9.52;5.63;;;8.10;99.40;;;7.68;71.08;100908.34;4081128;29;20036;-70
2021/04/30 00:11:29;;;;;;;7.60;5.32;;;8.10;99.60;;;7.67;72.23;100904.09;4080730;29;20518;-69
2021/04/30 00:13:30;;;;;;;9.02;5.45;;;8.00;99.90;;;7.68;72.17;100900.47;4080469;29;20059;-70
2021/04/30 00:15:31;;;;;;;8.30;6.00;;;8.10;99.90;;;7.58;72.60;100886.50;4080188;29;20056;-69
2021/04/30 00:17:32;;;;;;;8.00;5.60;;;8.00;99.90;;;7.53;73.30;100903.59;4081305;29;20028;-69
2021/04/30 00:19:33;;;;;;;8.95;5.70;;;8.00;99.90;;;7.70;73.10;100901.19;4079060;29;20401;-70
2021/04/30 00:21:36;;;;;;;8.38;5.68;;;8.00;99.90;;;7.49;72.93;100902.22;4081147;29;20042;-69
2021/04/30 00:23:37;;;;;;;9.25;5.65;;;7.90;99.90;;;7.48;72.99;100909.25;4079453;29;20067;-69
2021/04/30 00:25:41;;;;;;;6.40;5.45;;;7.90;99.90;;;7.47;71.72;100904.13;4080793;29;20025;-69
2021/04/30 00:27:42;;;;;;;8.10;5.95;;;7.90;99.90;;;7.50;72.37;100902.06;4087462;29;20028;-70
2021/04/30 00:29:43;;;;;;;7.05;5.10;;;7.80;99.90;;;7.57;72.74;100900.59;4080998;29;20078;-69
2021/04/30 00:31:44;;;;;;;10.20;5.90;;;7.90;99.90;;;7.63;72.63;100894.81;4080382;29;20419;-69
2021/04/30 00:33:45;;;;;;;9.18;5.75;;;7.90;99.90;;;7.67;72.53;100900.63;4080003;29;20504;-70
2021/04/30 00:35:46;;;;;;;7.93;5.55;;;7.90;99.90;;;7.50;73.06;100869.75;4080673;29;20051;-69
2021/04/30 00:37:47;;;;;;;8.90;5.43;;;7.90;99.90;;;7.58;73.00;100898.81;4080676;29;20519;-70
2021/04/30 00:39:48;;;;;;;8.25;5.43;;;7.90;99.90;;;7.54;73.89;100895.59;4080431;29;20523;-70
2021/04/30 00:41:49;;;;;;;8.18;5.63;;;7.80;99.90;;;7.44;73.49;100904.38;4087072;29;20032;-69
2021/04/30 00:43:50;;;;;;;8.80;5.97;;;7.90;99.90;;;7.41;73.21;100881.88;4080768;29;20032;-69
2021/04/30 00:45:53;;;;;;;7.28;4.90;;;7.70;99.90;;;7.50;71.94;100899.44;4086914;29;20146;-69
2021/04/30 00:47:55;;;;;;;7.68;5.78;;;7.80;99.90;;;7.55;72.53;100891.19;4079369;29;20050;-69
2021/04/30 00:49:56;;;;;;;8.20;5.95;;;7.90;99.90;;;7.47;73.35;100893.63;4079810;29;20141;-70
2021/04/30 00:51:57;;;;;;;10.25;5.70;;;7.80;99.90;;;7.50;73.07;100891.56;4079399;29;20048;-69
2021/04/30 00:53:59;;;;;;;9.73;5.97;;;7.80;99.90;;;7.45;73.47;100877.19;4080148;29;20036;-69
2021/04/30 00:56:00;;;;;;;6.80;5.30;;;7.90;99.90;;;7.49;73.70;100884.69;4080129;29;20032;-69
2021/04/30 00:58:03;;;;;;;6.88;5.68;;;7.80;99.90;;;7.52;73.42;100884.41;4080242;29;20108;-69
2021/04/30 01:00:10;;;;;;;7.70;5.05;;;7.90;99.90;;;7.52;73.88;100876.53;4080491;29;20092;-69
2021/04/30 01:02:11;;;;;;;8.43;5.78;;;7.90;99.90;;;7.54;74.03;100879.03;4081275;29;20051;-70
2021/04/30 01:04:12;;;;;;;8.30;5.60;;;7.90;99.90;;;7.65;72.72;100882.38;4087159;28;20031;-70
2021/04/30 01:06:14;;;;;;;6.68;5.57;;;7.90;99.90;;;7.59;74.08;100876.81;4080485;29;20063;-70
2021/04/30 01:08:15;;;;;;;8.68;5.60;;;7.90;99.90;;;7.44;74.35;100878.13;4080433;29;20024;-70
2021/04/30 01:10:16;;;;;;;8.63;5.57;;;7.90;99.90;;;7.36;74.11;100870.94;4080395;29;20107;-70
2021/04/30 01:12:17;;;;;;;9.27;6.10;;;7.90;99.90;;;7.50;73.70;100873.19;4079442;29;20063;-69
2021/04/30 01:14:18;;;;;;;7.93;5.70;;;7.90;99.90;;;7.45;73.75;100864.91;4079951;29;20027;-70
2021/04/30 01:16:19;;;;;;;6.72;6.03;;;7.80;99.90;;;7.46;74.73;100866.56;4080039;29;20396;-70
2021/04/30 01:18:20;;;;;;;8.80;5.82;;;7.80;99.90;;;7.40;74.58;100871.50;4079483;29;20040;-69
2021/04/30 01:20:21;;;;;;;7.68;5.30;;;7.70;99.90;;;7.49;74.48;100871.56;4080088;29;20111;-69
2021/04/30 01:22:36;;;;;;;8.38;5.25;;;7.90;99.90;;;7.53;74.81;100865.06;4086997;29;20134;-70
2021/04/30 01:24:37;;;;;;;12.32;6.97;;;7.80;99.90;;;7.47;74.81;100862.97;4080644;29;20137;-69
2021/04/30 01:26:41;;;;;;;11.20;6.10;;;7.80;99.90;;;7.41;74.76;100874.00;4080503;29;20032;-69
2021/04/30 01:28:43;;;;;;;8.07;5.60;;;7.80;99.90;;;7.50;73.76;100862.69;4086847;29;20507;-69
2021/04/30 01:30:44;;;;;;;9.10;5.20;;;7.80;99.90;;;7.48;74.33;100863.81;4085795;29;20024;-69
2021/04/30 01:32:45;;;;;;;8.73;6.53;;;7.80;99.90;;;7.64;72.89;100872.84;4079902;29;20071;-69
2021/04/30 01:34:46;;;;;;;8.32;6.18;;;7.70;99.90;;;7.80;71.72;100857.41;4079576;29;20019;-69
2021/04/30 01:36:49;;;;;;;11.40;6.35;;;7.90;99.90;;;7.67;71.20;100848.97;4079079;29;20128;-70
2021/04/30 01:38:50;;;;;;;10.57;6.28;;;7.80;99.90;;;7.69;70.90;100857.50;4079930;29;20032;-69
2021/04/30 01:40:51;;;;;;;7.45;5.38;;;7.90;99.90;;;7.52;71.77;100857.34;4086456;29;20063;-69
2021/04/30 01:43:06;;;;;;;7.40;6.03;;;7.80;99.90;;;7.55;71.29;100859.69;4078919;29;20024;-69
2021/04/30 01:45:07;;;;;;;;;;;7.80;99.90;;;7.62;70.76;100856.38;4094298;29;20466;-69
2021/04/30 01:47:08;;;;;;;6.97;5.60;;;7.80;99.90;;;7.52;70.51;100850.28;4079500;29;19915;-69
2021/04/30 01:49:09;;;;;;;7.60;5.70;;;7.80;99.90;;;7.51;70.66;100860.91;4086437;29;20039;-70
2021/04/30 01:51:11;;;;;;;10.40;5.53;;;7.70;99.90;;;7.40;71.77;100859.22;4080126;29;20487;-69
2021/04/30 01:53:23;;;;;;;7.18;5.60;;;7.70;99.90;;;7.39;72.06;100856.72;4079767;29;20036;-69
2021/04/30 01:55:29;;;;;;;10.65;7.03;;;7.60;99.90;;;7.24;72.28;100858.88;4077681;29;20488;-70
2021/04/30 01:57:30;;;;;;;10.15;5.75;;;7.50;99.90;;;7.13;72.78;100854.56;4080422;29;20119;-69
2021/04/30 01:59:31;;;;;;;8.05;6.43;;;7.40;99.90;;;7.16;72.27;100858.72;4079140;29;20040;-69
2021/04/30 02:01:32;;;;;;;6.65;5.88;;;7.40;99.90;;;7.09;73.00;100857.56;4079001;29;20020;-69
2021/04/30 02:03:33;;;;;;;7.70;6.53;;;7.40;99.90;;;7.03;72.68;100853.69;4079759;29;20042;-69
2021/04/30 02:05:34;;;;;;;8.15;6.13;;;7.30;99.90;;;7.03;73.33;100868.56;4086393;29;20049;-69
2021/04/30 02:07:35;;;;;;;7.28;6.32;;;7.30;99.90;;;7.02;72.75;100861.66;4079658;29;20040;-69
2021/04/30 02:09:36;;;;;;;7.95;6.35;;;7.30;99.90;;;6.92;73.29;100866.88;4079319;29;20083;-69
2021/04/30 02:11:37;;;;;;;7.82;5.13;;;7.20;99.90;;;6.89;73.59;100872.38;4078766;29;20035;-69
2021/04/30 02:13:38;;;;;;;7.45;5.43;;;7.20;99.90;;;6.77;73.82;100872.56;4079157;29;20038;-70
2021/04/30 02:15:45;;;;;;;9.43;6.68;;;7.10;99.90;;;6.78;74.19;100864.56;4078115;29;20060;-69
2021/04/30 02:17:46;;;;;;;8.40;6.35;;;7.00;99.90;;;6.82;74.67;100868.59;4079565;29;20028;-70
2021/04/30 02:19:46;;;;;;;9.95;6.95;;;7.10;99.90;;;6.71;75.95;100862.59;4079518;29;20036;-69
2021/04/30 02:21:47;;;;;;;9.02;6.35;;;7.10;99.90;;;6.93;75.73;100872.97;4086325;29;20034;-69
2021/04/30 02:23:48;;;;;;;8.48;6.25;;;7.10;99.90;;;6.88;76.85;100872.50;4078235;29;20063;-69
2021/04/30 02:25:50;;;;;;;7.75;6.00;;;7.10;99.90;;;6.91;75.90;100853.88;4078238;29;20083;-69
2021/04/30 02:27:53;;;;;;;8.60;6.30;;;7.10;99.90;;;6.95;75.38;100874.47;4079768;29;20508;-70
2021/04/30 02:29:54;;;;;;;8.45;5.93;;;7.10;99.90;;;6.59;76.29;100875.78;4079425;29;20554;-69
2021/04/30 02:31:55;;;;;;;9.10;5.80;;;7.00;99.90;;;6.30;77.27;100847.69;4078439;29;20056;-69
2021/04/30 02:33:56;;;;;;;8.57;6.50;;;6.90;99.90;;;6.41;76.96;100865.97;4085524;29;20036;-69
2021/04/30 02:35:56;;;;;;;8.07;6.35;;;6.80;99.90;;;6.35;77.86;100866.47;4079889;29;20024;-69
2021/04/30 02:37:58;;;;;;;11.23;6.18;;;6.70;99.90;;;6.33;78.06;100868.41;4078911;29;20411;-69
2021/04/30 02:39:59;;;;;;;8.07;6.15;;;6.70;99.90;;;6.41;77.62;100858.94;4085536;29;20024;-69
2021/04/30 02:42:00;;;;;;;8.93;6.72;;;6.70;99.90;;;6.42;76.74;100844.88;4079267;29;20032;-69
2021/04/30 02:44:01;;;;;;;9.32;6.63;;;6.70;99.90;;;6.52;77.12;100865.91;4078447;29;20056;-69
2021/04/30 02:46:02;;;;;;;10.93;7.13;;;6.70;99.90;;;6.63;77.07;100866.69;4079390;29;20044;-69
2021/04/30 02:48:21;;;;;;;8.23;6.63;;;6.70;99.90;;;6.63;76.00;100861.44;4078439;29;20039;-69
2021/04/30 02:50:26;;;;;;;9.02;5.93;;;6.70;99.90;;;6.60;76.03;100871.38;4084611;29;20115;-69
2021/04/30 02:52:28;;;;;;;6.53;5.40;;;6.70;99.90;;;6.48;76.82;100859.28;4079090;29;20032;-69
2021/04/30 02:54:29;;;;;;;13.18;6.50;;;6.70;99.90;;;6.38;77.47;100856.59;4077997;29;20032;-69
2021/04/30 02:56:32;;;;;;;9.38;7.07;;;6.60;99.90;;;6.36;77.31;100865.53;4078566;29;20024;-69
2021/04/30 02:58:34;;;;;;;11.85;6.70;;;6.60;99.90;;;6.14;77.17;100863.81;4078599;29;20513;-70
2021/04/30 03:00:35;;;;;;;9.25;6.55;;;6.50;99.90;;;6.05;77.65;100856.72;4078186;29;20035;-69
2021/04/30 03:02:36;;;;;;;7.90;6.13;;;6.40;99.90;;;5.86;78.75;100867.81;4084158;29;20044;-69
2021/04/30 03:04:37;;;;;;;7.82;6.18;;;6.30;99.90;;;5.81;79.13;100866.50;4078763;29;20094;-69
2021/04/30 03:06:38;;;;;;;8.38;6.93;;;6.20;99.90;;;5.97;79.03;100862.56;4077199;29;20484;-69
2021/04/30 03:08:39;;;;;;;9.68;6.93;;;6.20;99.90;;;6.01;79.59;100868.38;4078586;29;20411;-69
2021/04/30 03:10:40;;;;;;;10.38;7.05;;;6.20;99.90;;;5.94;79.18;100862.00;4077901;29;20029;-69
2021/04/30 03:12:41;;;;;;;9.55;6.85;;;6.20;99.90;;;6.00;79.30;100871.97;4078810;29;20028;-69
2021/04/30 03:14:42;;;;;;;9.30;6.55;;;6.20;99.90;;;6.06;78.62;100859.19;4078523;29;20392;-69
2021/04/30 03:16:43;;;;;;;7.97;5.80;;;6.20;99.90;;;5.95;78.75;100855.78;4077964;29;20040;-69
2021/04/30 03:18:44;;;;;;;9.98;6.43;;;6.20;99.90;;;5.92;79.02;100853.41;4078409;29;20036;-69
2021/04/30 03:20:45;;;;;;;11.10;7.28;;;6.20;99.90;;;6.03;77.07;100850.78;4078487;29;20039;-69
2021/04/30 03:22:46;;;;;;;11.30;7.13;;;6.20;99.90;;;5.95;78.22;100848.75;4078628;29;20036;-69
2021/04/30 03:24:48;;;;;;;8.85;6.82;;;6.20;99.90;;;6.03;76.82;100856.00;4077870;29;20032;-69
2021/04/30 03:26:49;;;;;;;12.15;7.05;;;6.20;99.90;;;6.05;76.84;100849.69;4079238;29;20385;-69
2021/04/30 03:28:50;;;;;;;8.95;7.20;;;6.20;99.90;;;6.05;75.39;100848.84;4078437;29;20036;-70
2021/04/30 03:30:50;;;;;;;11.05;7.35;;;6.30;99.90;;;6.21;75.57;100844.03;4078130;29;20407;-70
2021/04/30 03:32:51;;;;;;;7.88;6.65;;;6.40;99.90;;;6.21;76.26;100843.22;4077653;29;20031;-70
2021/04/30 03:34:53;;;;;;;10.55;7.15;;;6.40;99.90;;;6.21;75.38;100836.19;4078498;29;20032;-69
2021/04/30 03:36:54;;;;;;;10.90;7.32;;;6.40;99.90;;;6.19;75.71;100847.72;4085211;29;20023;-70
2021/04/30 03:38:59;;;;;;;8.38;7.45;;;6.40;99.90;;;6.06;76.78;100840.06;4078214;29;20055;-70
2021/04/30 03:41:00;;;;;;;10.32;7.10;;;6.30;99.90;;;6.09;75.42;100839.81;4078557;29;20028;-70
2021/04/30 03:43:01;;;;;;;11.57;6.97;;;6.30;99.90;;;6.09;75.67;100843.22;4085280;29;20032;-70
2021/04/30 03:45:04;;;;;;;9.93;6.70;;;6.40;99.90;;;6.00;75.77;100835.31;4076821;29;20586;-69
2021/04/30 03:47:04;;;;;;;9.30;7.60;;;6.30;99.90;;;5.95;76.80;100850.53;4077891;29;20039;-69
2021/04/30 03:49:05;;;;;;;9.15;7.10;;;6.30;99.90;;;5.88;76.57;100855.47;4078593;29;20028;-69
2021/04/30 03:51:06;;;;;;;10.75;7.05;;;6.20;99.90;;;5.54;76.97;100843.34;4078476;29;20036;-69
2021/04/30 03:53:07;;;;;;;9.88;8.07;;;6.00;99.90;;;5.79;76.17;100856.16;4092807;29;20439;-69
2021/04/30 03:55:09;;;;;;;12.23;8.07;;;6.00;99.90;;;5.73;76.66;100847.97;4077094;29;20031;-69
2021/04/30 03:57:10;;;;;;;8.38;6.55;;;6.10;99.90;;;5.47;77.15;100850.00;4078333;29;20114;-69
2021/04/30 03:59:11;;;;;;;11.10;7.05;;;6.00;99.90;;;5.45;78.50;100855.38;4078076;29;20064;-69
2021/04/30 04:01:12;;;;;;;9.90;6.82;;;5.90;99.90;;;5.68;77.56;100863.19;4078146;29;20530;-69
2021/04/30 04:03:13;;;;;;;10.65;6.50;;;5.90;99.90;;;5.69;78.79;100862.25;4078103;29;20043;-69
2021/04/30 04:05:14;;;;;;;10.55;7.03;;;5.90;99.90;;;5.81;77.23;100862.09;4078238;29;20031;-69
2021/04/30 04:07:15;;;;;;;25.33;7.65;;;6.00;99.90;;;5.91;77.53;100870.09;4078288;29;20115;-69
2021/04/30 04:09:16;;;;;;;10.65;7.10;;;6.00;99.90;;;5.88;76.90;100865.94;4077491;29;20059;-69
2021/04/30 04:11:17;;;;;;;9.60;7.57;;;6.10;99.90;;;5.85;77.50;100862.69;4077825;29;20028;-69
2021/04/30 04:13:21;;;;;;;12.85;7.57;;;6.10;99.90;;;6.04;76.47;100857.66;4078207;29;20032;-69
2021/04/30 04:15:23;;;;;;;10.43;7.40;;;6.10;99.90;;;6.09;76.44;100866.81;4077323;29;20036;-69
2021/04/30 04:17:23;;;;;;;10.95;7.47;;;6.30;99.90;;;6.07;77.13;100867.88;4077924;29;20407;-69
2021/04/30 04:19:24;;;;;;;14.05;7.95;;;6.30;99.90;;;5.90;76.20;100873.66;4084479;29;20027;-69
2021/04/30 04:21:25;;;;;;;11.75;7.68;;;6.30;99.90;;;6.01;76.37;100866.59;4078168;29;20025;-69
2021/04/30 04:23:26;;;;;;;9.05;7.20;;;6.30;99.90;;;5.89;75.36;100864.97;4078218;29;20487;-69
2021/04/30 04:25:27;;;;;;;10.88;8.07;;;6.30;99.90;;;6.01;75.35;100868.38;4078434;29;20027;-69
2021/04/30 04:27:28;;;;;;;10.13;7.55;;;6.30;99.90;;;5.97;75.28;100841.59;4078036;29;20119;-69
2021/04/30 04:29:29;;;;;;;11.55;7.63;;;6.30;99.90;;;6.12;75.28;100870.97;4078415;29;20546;-69
2021/04/30 04:31:30;;;;;;;12.88;7.72;;;6.40;99.90;;;5.99;76.46;100871.13;4077496;29;20093;-69
2021/04/30 04:33:32;;;;;;;13.45;8.43;;;6.30;99.90;;;5.98;75.99;100868.63;4077794;29;20444;-69
2021/04/30 04:35:33;;;;;;;10.85;8.63;;;6.30;99.90;;;5.85;76.60;100866.19;4078116;29;20550;-69
2021/04/30 04:37:36;;;;;;;9.40;7.60;;;6.20;99.90;;;5.99;76.62;100871.13;4083627;29;20038;-69
2021/04/30 04:39:37;;;;;;;11.95;7.95;;;6.30;99.90;;;5.99;77.22;100879.00;4080202;29;20514;-69
2021/04/30 04:41:38;;;;;;;13.05;8.15;;;6.30;99.90;;;6.06;76.59;100881.94;4079962;29;20035;-69
2021/04/30 04:43:39;;;;;;;13.55;8.50;;;6.30;99.90;;;6.02;76.90;100855.19;4081129;29;20043;-69
2021/04/30 04:45:40;;;;;;;9.10;7.55;;;6.30;99.90;;;6.07;77.08;100870.50;4079939;29;20518;-69
2021/04/30 04:47:42;;;;;;;12.32;9.18;;;6.40;99.90;;;6.06;77.37;100879.34;4080692;29;20063;-69
2021/04/30 04:49:43;;;;;;;10.52;8.15;;;6.30;99.90;;;6.03;76.01;100871.72;4080213;29;20091;-69
2021/04/30 04:51:44;;;;;;;11.32;8.10;;;6.30;99.90;;;6.06;76.40;100882.75;4080982;29;20043;-69
2021/04/30 04:53:44;;;;;;;12.50;8.55;;;6.30;99.90;;;6.03;76.43;100880.38;4080017;29;20028;-69
2021/04/30 04:55:45;;;;;;;13.50;8.25;;;6.30;99.90;;;5.83;76.65;100880.28;4080141;29;20080;-69
2021/04/30 04:57:46;;;;;;;11.77;8.82;;;6.40;99.90;;;5.61;77.09;100886.41;4080486;29;20024;-69
2021/04/30 04:59:47;;;;;;;13.23;9.05;;;6.30;99.90;;;5.66;77.29;100883.41;4080335;29;20032;-69
2021/04/30 05:01:48;;;;;;;11.77;8.98;;;6.20;99.90;;;5.57;76.90;100877.97;4080345;29;20030;-69
2021/04/30 05:03:49;;;;;;;10.90;8.98;;;6.20;99.90;;;5.74;77.37;100886.25;4086785;29;20035;-69
2021/04/30 05:05:50;;;;;;;11.48;8.98;;;6.20;99.90;;;5.75;77.29;100880.91;4080330;29;20032;-69
2021/04/30 05:07:51;;;;;;;15.23;8.48;;;6.10;99.90;;;5.75;78.11;100895.78;4086390;29;20031;-69
2021/04/30 05:09:52;;;;;;;13.45;9.68;;;6.10;99.90;;;5.46;78.30;100888.44;4080629;29;20032;-69
2021/04/30 05:11:55;;;;;;;11.50;9.25;;;6.10;99.90;;;5.62;78.48;100893.28;4080873;29;20039;-69
2021/04/30 05:13:56;;;;;;;11.25;9.13;;;6.10;99.90;;;5.67;78.21;100895.56;4079833;29;20488;-69
2021/04/30 05:15:57;;;;;;;11.88;9.60;;;6.10;99.90;;;5.68;77.11;100897.22;4079669;29;20024;-69
2021/04/30 05:17:58;;;;;;;12.75;8.40;;;6.10;99.90;;;5.76;77.48;100894.84;4079868;29;20032;-69
2021/04/30 05:19:59;;;;;;;11.10;8.25;;;6.10;99.90;;;5.86;77.24;100903.63;4080014;29;20443;-69
2021/04/30 05:22:01;;;;;;;16.77;9.70;;;6.20;99.90;;;5.86;76.65;100895.78;4079868;29;20020;-69
2021/04/30 05:24:02;;;;;;;14.35;9.68;;;6.30;99.90;;;5.81;77.08;100898.75;4086669;29;20225;-69
2021/04/30 05:26:04;;;;;;;13.88;8.90;;;6.30;99.90;;;5.95;76.21;100895.06;4086365;29;20028;-70
2021/04/30 05:28:05;;;;;;;12.65;9.07;;;6.30;99.90;;;5.85;77.09;100894.97;4082470;29;20075;-70
2021/04/30 05:30:08;;;;;;;14.57;8.93;;;6.40;99.90;;;5.96;77.40;100902.81;4077586;29;20241;-70
2021/04/30 05:32:10;;;;;;;11.65;9.18;;;6.40;99.90;;;5.92;76.59;100914.47;4079431;29;20515;-70
2021/04/30 05:34:11;;;;;;;11.23;9.23;;;6.40;99.90;;;5.83;76.89;100907.31;4077778;29;20036;-70
2021/04/30 05:36:12;;;;;;;14.80;9.85;;;6.40;99.90;;;6.00;76.84;100906.81;4086653;29;20028;-70
2021/04/30 05:38:13;;;;;;;12.60;8.57;;;6.40;99.90;;;6.17;76.30;100909.88;4080059;29;20052;-70
2021/04/30 05:40:14;;;;;;;10.88;8.43;;;6.50;99.90;;;6.25;75.92;100903.06;4079791;29;20053;-70
2021/04/30 05:42:15;;;;;;;15.63;9.60;;;6.50;99.90;;;6.09;75.85;100911.31;4077881;29;20495;-70
2021/04/30 05:44:16;;;;;;;11.75;8.43;;;6.60;99.90;;;6.08;75.42;100911.47;4084998;29;20066;-70
2021/04/30 05:46:17;;;;;;;10.88;9.70;;;6.60;99.90;;;6.04;76.27;100905.63;4078478;29;20040;-71
2021/04/30 05:48:19;;;;;;;13.75;9.05;;;6.60;99.90;;;6.07;76.17;100908.00;4076979;29;20032;-71
2021/04/30 05:50:20;;;;;;;14.00;9.32;;;6.70;99.90;;;6.22;75.94;100908.56;4078580;29;20038;-72
2021/04/30 05:52:21;;;;;;;13.13;9.40;;;6.70;99.90;;;6.21;75.42;100906.06;4085923;29;20035;-71
2021/04/30 05:54:22;;;;;;;18.08;8.70;;;6.80;99.90;;;6.29;75.55;100901.03;4079655;29;20025;-72
2021/04/30 05:56:23;;;;;;;13.48;9.15;;;6.80;99.90;;;6.16;75.89;100888.09;4079748;29;20100;-72
2021/04/30 05:58:24;;;;;;;13.90;9.30;;;6.80;99.90;;;6.25;75.61;100897.00;4078018;29;20028;-72
2021/04/30 06:00:25;;;;;;;13.77;9.85;;;6.80;99.90;;;6.44;75.83;100911.09;4085876;29;20035;-71
2021/04/30 06:02:26;;;;;;;13.48;10.13;;;6.90;99.90;;;6.42;74.01;100894.66;4079538;29;20028;-71
2021/04/30 06:04:28;;;;;;;13.85;9.75;;;6.90;99.90;;;6.50;74.29;100909.75;4085972;29;20408;-72
2021/04/30 06:06:29;;;;;;;13.10;9.43;;;7.00;99.90;;;6.53;74.97;100917.38;4078183;29;20108;-72
2021/04/30 06:08:30;;;;;;;12.65;10.23;;;7.10;99.90;;;6.54;75.02;100912.00;4078864;29;20575;-71
2021/04/30 06:10:31;;;;;;;15.75;10.25;;;7.10;99.90;;;6.37;74.41;100909.94;4079584;29;20028;-71
2021/04/30 06:12:33;;;;;;;14.27;9.32;;;7.10;99.90;;;6.48;75.12;100912.50;4074360;29;20032;-69
2021/04/30 06:14:34;;;;;;;14.88;9.45;;;7.20;99.90;;;6.40;75.02;100911.47;4077688;29;20126;-70
2021/04/30 06:16:35;;;;;;;13.05;9.63;;;7.10;99.90;;;6.49;74.84;100914.16;4076373;29;20031;-70
2021/04/30 06:18:36;;;;;;;13.02;9.85;;;7.20;99.90;;;6.59;74.79;100915.09;4084590;29;20480;-70
2021/04/30 06:20:37;;;;;;;11.80;10.00;;;7.20;99.90;;;6.68;74.98;100901.22;4078507;29;20024;-70
2021/04/30 06:22:37;;;;;;;11.60;9.10;;;7.30;99.90;;;6.72;74.32;100920.13;4085084;29;20024;-70
2021/04/30 06:24:38;;;;;;;12.65;9.43;;;7.30;99.90;;;6.67;74.40;100917.06;4078521;29;20031;-70
2021/04/30 06:26:39;;;;;;;12.25;9.57;;;7.40;99.90;;;6.35;75.47;100911.00;4079651;29;20028;-70
2021/04/30 06:28:40;;;;;;;13.82;10.60;;;7.40;99.90;;;6.53;75.30;100922.63;4078148;29;20064;-70
2021/04/30 06:30:41;;;;;;;13.38;9.15;;;7.40;99.90;;;6.36;75.43;100905.63;4077663;29;20040;-70
2021/04/30 06:32:43;;;;;;;14.25;9.65;;;7.40;99.90;;;6.43;75.35;100921.69;4085057;29;20059;-70
2021/04/30 06:34:44;;;;;;;12.82;9.80;;;7.40;99.90;;;6.43;75.65;100912.03;4076451;29;20117;-69
2021/04/30 06:36:45;;;;;;;16.15;11.32;;;7.40;99.90;;;6.60;75.21;100916.72;4077872;29;20049;-69
2021/04/30 06:38:47;;;;;;;16.60;10.90;;;7.40;99.90;;;6.72;74.59;100912.25;4078803;29;20027;-69
2021/04/30 06:40:48;;;;;;;14.70;9.82;;;7.40;99.90;;;6.86;74.70;100914.59;4085042;29;20032;-70
2021/04/30 06:42:49;;;;;;;11.77;9.52;;;7.50;99.90;;;6.87;75.33;100913.59;4078290;29;20039;-71
2021/04/30 06:44:51;;;;;;;15.02;10.85;;;7.50;99.90;;;6.94;74.84;100917.41;4077779;29;20131;-71
2021/04/30 06:46:52;;;;;;;14.45;9.70;;;7.60;99.90;;;6.97;74.00;100917.13;4078114;29;20483;-70
2021/04/30 06:48:53;;;;;;;15.05;10.82;;;7.60;99.90;;;6.97;73.73;100913.69;4077683;29;20036;-71
2021/04/30 06:50:53;;;;;;;13.50;10.02;;;7.70;99.90;;;6.95;74.21;100907.75;4077792;29;20040;-70
2021/04/30 06:52:55;;;;;;;17.38;10.85;;;7.80;99.90;;;7.06;73.89;100915.53;4078109;29;20036;-70
2021/04/30 06:54:55;;;;;;;17.75;10.38;;;7.80;99.90;;;7.10;74.24;100912.53;4078025;29;20035;-70
2021/04/30 06:56:56;;;;;;;16.67;10.02;;;7.80;99.90;;;7.15;73.29;100920.84;4077946;29;20476;-72
2021/04/30 06:58:58;;;;;;;15.18;10.18;;;7.90;99.90;;;7.29;73.20;100922.28;4078019;29;20036;-71
2021/04/30 07:00:59;;;;;;;12.02;9.32;;;8.00;99.90;;;7.32;73.33;100919.38;4076965;29;20027;-70
2021/04/30 07:03:00;;;;;;;16.38;10.05;;;8.00;99.90;;;7.40;72.71;100922.22;4077800;29;20043;-72
2021/04/30 07:05:01;;;;;;;14.27;10.50;;;8.10;99.90;;;7.33;73.70;100925.47;4078186;29;20102;-72
2021/04/30 07:07:02;;;;;;;13.45;10.23;;;8.20;99.90;;;7.45;72.79;100916.56;4077496;29;20479;-72
2021/04/30 07:09:04;;;;;;;12.98;9.95;;;8.20;99.90;;;7.58;72.94;100923.25;4077948;29;20063;-72
2021/04/30 07:11:06;;;;;;;13.38;9.38;;;8.20;99.90;;;7.70;72.76;100916.94;4076604;29;20032;-72
2021/04/30 07:13:15;;;;;;;13.63;9.90;;;8.30;99.90;;;7.76;71.65;100916.38;4076806;29;20427;-72
2021/04/30 07:15:17;;;;;;;14.40;10.57;;;8.40;99.90;;;7.81;71.08;100918.63;4076494;29;20044;-72
2021/04/30 07:17:18;;;;;;;14.20;10.23;;;8.50;99.90;;;7.68;71.17;100910.16;4083602;29;20462;-72
2021/04/30 07:19:20;;;;;;;13.77;9.45;;;8.60;99.90;;;7.63;71.55;100914.97;4075913;29;20039;-72
2021/04/30 07:21:21;;;;;;;13.35;10.98;;;8.60;99.90;;;7.62;71.88;100908.06;4076524;29;20499;-72
2021/04/30 07:23:22;;;;;;;13.82;9.00;;;8.60;99.90;;;7.80;71.08;100911.69;4076717;29;20031;-72
2021/04/30 07:25:23;;;;;;;11.65;9.18;;;8.70;99.90;;;7.96;70.83;100909.41;4076836;29;20035;-72
2021/04/30 07:27:24;;;;;;;12.93;10.10;;;8.70;99.90;;;7.92;70.54;100904.53;4083991;29;20064;-72
2021/04/30 07:29:25;;;;;;;14.93;10.57;;;8.80;99.90;;;8.05;70.60;100910.38;4078163;29;20039;-72
2021/04/30 07:31:26;;;;;;;13.15;8.95;;;8.90;99.90;;;8.09;70.35;100901.28;4078393;29;20040;-72
2021/04/30 07:33:27;;;;;;;15.35;10.00;;;9.00;99.90;;;8.22;68.97;100913.19;4077556;29;20071;-72
2021/04/30 07:35:27;;;;;;;14.25;8.85;;;9.10;99.90;;;8.31;68.12;100909.75;4077703;29;20102;-72
2021/04/30 07:37:29;;;;;;;12.52;8.68;;;9.10;99.90;;;8.32;68.08;100921.09;4077795;29;20111;-73
2021/04/30 07:39:31;;;;;;;11.80;8.95;;;9.40;99.90;;;8.44;66.60;100917.38;4076043;29;20055;-73
2021/04/30 07:41:32;;;;;;;10.98;8.88;;;9.20;99.90;;;8.66;66.80;100916.28;4077320;29;20032;-73
2021/04/30 07:43:33;;;;;;;12.45;8.70;;;9.40;99.90;;;8.70;64.32;100910.59;4078089;29;20083;-73
2021/04/30 07:45:35;;;;;;;12.02;8.55;;;9.50;99.80;;;8.89;66.21;100910.56;4077700;29;20058;-73
2021/04/30 07:47:36;;;;;;;11.18;8.35;;;9.60;99.90;;;9.02;64.97;100922.59;4077559;29;20028;-73
2021/04/30 07:49:37;;;;;;;10.30;8.48;;;9.70;99.90;;;9.17;65.16;100921.19;4077763;29;20562;-73
2021/04/30 07:51:39;;;;;;;14.35;9.38;;;9.80;99.70;;;9.18;63.97;100923.66;4069831;29;20120;-72
2021/04/30 07:53:40;;;;;;;9.70;7.78;;;10.00;99.70;;;9.10;63.24;100927.97;4077256;29;20119;-73
2021/04/30 07:55:41;;;;;;;11.85;7.72;;;10.10;98.70;;;9.25;64.57;100919.50;4077617;29;20400;-73
2021/04/30 07:57:42;;;;;;;12.77;8.38;;;10.20;99.30;;;8.84;62.22;100904.09;4077361;29;20051;-71
2021/04/30 07:59:43;;;;;;;10.77;7.38;;;10.20;97.60;;;9.00;63.68;100914.00;4077584;29;20025;-71
2021/04/30 08:01:44;;;;;;;11.38;8.80;;;10.30;98.30;;;9.18;63.15;100917.56;4083505;29;20038;-71
2021/04/30 08:03:46;;;;;;;13.20;8.93;;;10.30;97.90;;;9.27;62.24;100906.19;4077033;29;20040;-72
2021/04/30 08:05:48;;;;;;;9.73;8.05;;;10.30;97.70;;;9.62;63.21;100916.00;4076691;29;20107;-71
2021/04/30 08:07:50;;;;;;;11.68;8.18;;;10.50;98.30;;;9.48;62.04;100922.59;4078146;29;20031;-71
2021/04/30 08:09:53;;;;;;;14.70;9.52;;;10.60;97.60;;;9.68;62.65;100926.81;4077483;29;20031;-71
2021/04/30 08:11:54;;;;;;;12.27;7.57;;;10.70;97.70;;;9.57;60.84;100913.81;4077170;29;20040;-71
2021/04/30 08:13:55;;;;;;;9.48;7.15;;;10.70;96.50;;;9.86;60.16;100925.03;4077967;29;20087;-72
2021/04/30 08:15:56;;;;;;;8.23;6.85;;;10.80;96.70;;;9.96;56.76;100919.72;4080393;29;20025;-71
2021/04/30 08:17:58;;;;;;;8.63;6.20;;;10.90;94.70;;;10.06;57.65;100930.22;4081137;29;20028;-72
2021/04/30 08:19:59;;;;;;;10.85;6.30;;;11.00;95.00;;;10.18;55.69;100918.53;4080366;29;20051;-71
2021/04/30 08:22:01;;;;;;;9.45;5.82;;;11.10;93.90;;;10.19;55.82;100921.00;4079595;29;20403;-71
2021/04/30 08:24:03;;;;;;;7.93;5.68;;;11.20;93.70;;;10.42;53.85;100921.41;4080831;29;20056;-72
2021/04/30 08:26:04;;;;;;;10.38;5.93;;;11.30;93.00;;;10.40;55.46;100916.25;4081683;29;20032;-71
2021/04/30 08:28:05;;;;;;;6.13;5.10;;;11.40;93.00;;;10.51;52.28;100909.94;4079362;29;20039;-71
2021/04/30 08:30:07;;;;;;;7.40;5.85;;;11.50;91.80;;;10.30;50.71;100912.91;4086808;29;20048;-71
2021/04/30 08:32:08;;;;;;;10.02;5.35;;;11.60;90.00;;;10.40;50.08;100924.19;4080477;29;20035;-72